sensor_id;sensor_type;location;lat;lon;timestamp;pressure;altitude;pressure_sealevel;temperature;humidity
76590;BME280;65471;55.908;37.880;2023-04-30T00:02:20;100181.03;;;2.88;81.59
76590;BME280;65471;55.908;37.880;2023-04-30T00:04:47;100192.06;;;2.85;81.70
76590;BME280;65471;55.908;37.880;2023-04-30T00:07:14;100186.25;;;2.81;81.68
76590;BME280;65471;55.908;37.880;2023-04-30T00:09:41;100183.75;;;2.71;81.47
76590;BME280;65471;55.908;37.880;2023-04-30T00:12:08;100186.78;;;2.68;81.04
76590;BME280;65471;55.908;37.880;2023-04-30T00:14:35;100190.44;;;2.67;81.15
76590;BME280;65471;55.908;37.880;2023-04-30T00:17:02;100199.09;;;2.69;81.43
76590;BME280;65471;55.908;37.880;2023-04-30T00:19:29;100202.63;;;2.70;82.30
76590;BME280;65471;55.908;37.880;2023-04-30T00:21:56;100202.63;;;2.70;82.00
76590;BME280;65471;55.908;37.880;2023-04-30T00:24:23;100203.44;;;2.70;82.07
76590;BME280;65471;55.908;37.880;2023-04-30T00:26:49;100203.63;;;2.69;81.66
76590;BME280;65471;55.908;37.880;2023-04-30T00:29:16;100207.63;;;2.65;81.97
76590;BME280;65471;55.908;37.880;2023-04-30T00:31:43;100202.78;;;2.60;81.61
76590;BME280;65471;55.908;37.880;2023-04-30T00:34:10;100204.13;;;2.56;82.48
76590;BME280;65471;55.908;37.880;2023-04-30T00:36:37;100209.66;;;2.54;82.16
76590;BME280;65471;55.908;37.880;2023-04-30T00:39:05;100216.81;;;2.54;82.04
76590;BME280;65471;55.908;37.880;2023-04-30T00:41:34;100219.81;;;2.51;81.57
76590;BME280;65471;55.908;37.880;2023-04-30T00:44:01;100219.16;;;2.49;82.45
76590;BME280;65471;55.908;37.880;2023-04-30T00:46:28;100219.31;;;2.47;82.07
76590;BME280;65471;55.908;37.880;2023-04-30T00:48:55;100226.34;;;2.40;81.59
76590;BME280;65471;55.908;37.880;2023-04-30T00:51:22;100227.84;;;2.34;81.98
76590;BME280;65471;55.908;37.880;2023-04-30T00:53:49;100216.47;;;2.32;82.40
76590;BME280;65471;55.908;37.880;2023-04-30T00:56:16;100224.34;;;2.34;82.93
76590;BME280;65471;55.908;37.880;2023-04-30T00:58:44;100215.31;;;2.35;82.60
76590;BME280;65471;55.908;37.880;2023-04-30T01:01:11;100209.81;;;2.36;82.58
76590;BME280;65471;55.908;37.880;2023-04-30T01:03:39;100205.97;;;2.39;82.25
76590;BME280;65471;55.908;37.880;2023-04-30T01:06:06;100211.50;;;2.37;81.95
76590;BME280;65471;55.908;37.880;2023-04-30T01:08:33;100206.16;;;2.37;82.49
76590;BME280;65471;55.908;37.880;2023-04-30T01:13:44;100209.16;;;2.34;82.86
76590;BME280;65471;55.908;37.880;2023-04-30T01:16:25;100211.47;;;2.29;82.44
76590;BME280;65471;55.908;37.880;2023-04-30T01:18:59;100215.19;;;2.28;81.69
76590;BME280;65471;55.908;37.880;2023-04-30T01:21:29;100210.81;;;2.27;82.63
76590;BME280;65471;55.908;37.880;2023-04-30T01:29:27;100210.00;;;2.18;82.46
76590;BME280;65471;55.908;37.880;2023-04-30T01:31:54;100209.00;;;2.11;82.80
76590;BME280;65471;55.908;37.880;2023-04-30T01:34:21;100203.50;;;2.13;82.61
76590;BME280;65471;55.908;37.880;2023-04-30T01:46:08;100218.50;;;2.05;82.51
76590;BME280;65471;55.908;37.880;2023-04-30T01:51:39;100217.47;;;1.98;82.77
76590;BME280;65471;55.908;37.880;2023-04-30T01:56:46;100222.47;;;1.93;83.39
76590;BME280;65471;55.908;37.880;2023-04-30T01:59:18;100213.94;;;1.89;83.54
76590;BME280;65471;55.908;37.880;2023-04-30T02:01:45;100228.31;;;1.97;82.87
76590;BME280;65471;55.908;37.880;2023-04-30T02:04:12;100219.31;;;1.98;82.91
76590;BME280;65471;55.908;37.880;2023-04-30T02:06:39;100227.31;;;1.98;83.69
76590;BME280;65471;55.908;37.880;2023-04-30T02:09:07;100225.50;;;1.98;82.96
76590;BME280;65471;55.908;37.880;2023-04-30T02:11:36;100221.31;;;1.96;83.20
76590;BME280;65471;55.908;37.880;2023-04-30T02:14:02;100223.78;;;1.89;82.86
76590;BME280;65471;55.908;37.880;2023-04-30T02:16:49;100218.78;;;1.86;83.70
76590;BME280;65471;55.908;37.880;2023-04-30T02:19:16;100213.13;;;1.89;83.21
76590;BME280;65471;55.908;37.880;2023-04-30T02:21:43;100207.47;;;1.92;83.67
76590;BME280;65471;55.908;37.880;2023-04-30T02:24:10;100207.13;;;1.95;84.01
76590;BME280;65471;55.908;37.880;2023-04-30T02:26:37;100200.47;;;1.99;83.65
76590;BME280;65471;55.908;37.880;2023-04-30T02:29:04;100200.28;;;2.01;83.63
76590;BME280;65471;55.908;37.880;2023-04-30T02:31:31;100191.81;;;2.05;84.16
76590;BME280;65471;55.908;37.880;2023-04-30T02:33:57;100196.81;;;2.09;84.01
76590;BME280;65471;55.908;37.880;2023-04-30T02:36:24;100207.16;;;2.12;83.57
76590;BME280;65471;55.908;37.880;2023-04-30T02:38:51;100208.50;;;2.16;83.36
76590;BME280;65471;55.908;37.880;2023-04-30T02:41:18;100198.47;;;2.18;84.19
76590;BME280;65471;55.908;37.880;2023-04-30T02:43:45;100194.66;;;2.20;84.04
76590;BME280;65471;55.908;37.880;2023-04-30T02:46:12;100197.16;;;2.22;84.47
76590;BME280;65471;55.908;37.880;2023-04-30T02:48:39;100198.47;;;2.26;83.99
76590;BME280;65471;55.908;37.880;2023-04-30T02:51:05;100192.63;;;2.31;83.60
76590;BME280;65471;55.908;37.880;2023-04-30T02:53:32;100195.81;;;2.34;83.95
76590;BME280;65471;55.908;37.880;2023-04-30T02:55:59;100184.81;;;2.37;84.00
76590;BME280;65471;55.908;37.880;2023-04-30T02:58:26;100185.50;;;2.39;84.41
76590;BME280;65471;55.908;37.880;2023-04-30T03:00:53;100187.97;;;2.41;84.14
76590;BME280;65471;55.908;37.880;2023-04-30T03:03:20;100188.47;;;2.45;84.42
76590;BME280;65471;55.908;37.880;2023-04-30T03:05:47;100176.44;;;2.49;83.90
76590;BME280;65471;55.908;37.880;2023-04-30T03:08:14;100175.13;;;2.53;84.29
76590;BME280;65471;55.908;37.880;2023-04-30T03:10:41;100175.44;;;2.58;84.31
76590;BME280;65471;55.908;37.880;2023-04-30T03:13:08;100181.09;;;2.63;84.57
76590;BME280;65471;55.908;37.880;2023-04-30T03:15:34;100169.91;;;2.68;84.38
76590;BME280;65471;55.908;37.880;2023-04-30T03:18:01;100174.94;;;2.71;84.09
76590;BME280;65471;55.908;37.880;2023-04-30T03:20:29;100172.91;;;2.73;84.15
76590;BME280;65471;55.908;37.880;2023-04-30T03:22:56;100172.38;;;2.78;84.47
76590;BME280;65471;55.908;37.880;2023-04-30T03:25:23;100177.06;;;2.84;83.99
76590;BME280;65471;55.908;37.880;2023-04-30T03:27:50;100165.34;;;2.85;84.35
76590;BME280;65471;55.908;37.880;2023-04-30T03:30:17;100168.19;;;2.91;84.47
76590;BME280;65471;55.908;37.880;2023-04-30T03:32:44;100166.66;;;2.97;84.58
76590;BME280;65471;55.908;37.880;2023-04-30T03:35:11;100161.47;;;3.04;84.47
76590;BME280;65471;55.908;37.880;2023-04-30T03:37:38;100160.94;;;3.08;84.57
76590;BME280;65471;55.908;37.880;2023-04-30T03:40:05;100170.91;;;3.15;84.71
76590;BME280;65471;55.908;37.880;2023-04-30T03:42:32;100159.75;;;3.19;84.42
76590;BME280;65471;55.908;37.880;2023-04-30T03:44:59;100172.22;;;3.27;84.77
76590;BME280;65471;55.908;37.880;2023-04-30T03:47:26;100161.16;;;3.30;83.99
76590;BME280;65471;55.908;37.880;2023-04-30T03:49:53;100148.13;;;3.35;84.49
76590;BME280;65471;55.908;37.880;2023-04-30T03:52:21;100160.78;;;3.41;84.87
76590;BME280;65471;55.908;37.880;2023-04-30T03:54:48;100154.72;;;3.48;84.44
76590;BME280;65471;55.908;37.880;2023-04-30T03:57:15;100154.69;;;3.56;84.45
76590;BME280;65471;55.908;37.880;2023-04-30T03:59:42;100154.00;;;3.62;84.12
76590;BME280;65471;55.908;37.880;2023-04-30T04:02:09;100153.91;;;3.70;83.94
76590;BME280;65471;55.908;37.880;2023-04-30T04:04:36;100158.41;;;3.78;83.89
76590;BME280;65471;55.908;37.880;2023-04-30T04:07:03;100132.59;;;3.85;84.22
76590;BME280;65471;55.908;37.880;2023-04-30T04:09:30;100145.38;;;3.98;84.12
76590;BME280;65471;55.908;37.880;2023-04-30T04:11:57;100135.06;;;4.10;84.44
76590;BME280;65471;55.908;37.880;2023-04-30T04:14:24;100133.63;;;4.22;84.10
76590;BME280;65471;55.908;37.880;2023-04-30T04:16:51;100128.03;;;4.32;84.09
76590;BME280;65471;55.908;37.880;2023-04-30T04:19:17;100137.63;;;4.41;84.36
76590;BME280;65471;55.908;37.880;2023-04-30T04:21:44;100145.22;;;4.53;84.00
76590;BME280;65471;55.908;37.880;2023-04-30T04:24:11;100141.44;;;4.62;83.98
76590;BME280;65471;55.908;37.880;2023-04-30T04:26:38;100139.94;;;4.74;84.29
76590;BME280;65471;55.908;37.880;2023-04-30T04:29:05;100137.84;;;4.84;84.04
76590;BME280;65471;55.908;37.880;2023-04-30T04:31:34;100139.22;;;4.95;84.15
76590;BME280;65471;55.908;37.880;2023-04-30T04:34:02;100135.06;;;5.08;84.07
76590;BME280;65471;55.908;37.880;2023-04-30T04:36:30;100144.63;;;5.17;83.91
76590;BME280;65471;55.908;37.880;2023-04-30T04:38:59;100134.00;;;5.24;84.07
76590;BME280;65471;55.908;37.880;2023-04-30T04:41:33;100129.56;;;5.31;83.46
76590;BME280;65471;55.908;37.880;2023-04-30T04:44:01;100131.94;;;5.41;83.64
76590;BME280;65471;55.908;37.880;2023-04-30T04:46:30;100125.88;;;5.53;83.55
76590;BME280;65471;55.908;37.880;2023-04-30T04:48:57;100127.06;;;5.66;83.57
76590;BME280;65471;55.908;37.880;2023-04-30T04:51:24;100123.22;;;5.75;83.19
76590;BME280;65471;55.908;37.880;2023-04-30T04:53:51;100122.31;;;5.90;82.88
76590;BME280;65471;55.908;37.880;2023-04-30T04:56:18;100125.72;;;5.98;82.64
76590;BME280;65471;55.908;37.880;2023-04-30T04:58:46;100115.50;;;6.09;81.88
76590;BME280;65471;55.908;37.880;2023-04-30T05:01:13;100123.47;;;6.24;82.06
76590;BME280;65471;55.908;37.880;2023-04-30T05:03:40;100130.16;;;6.34;81.41
76590;BME280;65471;55.908;37.880;2023-04-30T05:06:07;100125.06;;;6.46;81.00
76590;BME280;65471;55.908;37.880;2023-04-30T05:08:34;100124.53;;;6.57;80.59
76590;BME280;65471;55.908;37.880;2023-04-30T05:11:01;100124.00;;;6.69;80.33
76590;BME280;65471;55.908;37.880;2023-04-30T05:13:28;100131.50;;;6.80;80.04
76590;BME280;65471;55.908;37.880;2023-04-30T05:15:56;100134.66;;;6.90;79.92
76590;BME280;65471;55.908;37.880;2023-04-30T05:18:23;100122.72;;;7.00;79.61
76590;BME280;65471;55.908;37.880;2023-04-30T05:20:49;100125.22;;;7.08;79.48
76590;BME280;65471;55.908;37.880;2023-04-30T05:23:16;100115.31;;;7.15;79.01
76590;BME280;65471;55.908;37.880;2023-04-30T05:25:43;100120.13;;;7.26;78.44
76590;BME280;65471;55.908;37.880;2023-04-30T05:28:11;100115.78;;;7.32;77.93
76590;BME280;65471;55.908;37.880;2023-04-30T05:30:38;100117.06;;;7.43;77.23
76590;BME280;65471;55.908;37.880;2023-04-30T05:33:05;100112.94;;;7.54;76.97
76590;BME280;65471;55.908;37.880;2023-04-30T05:35:32;100104.47;;;7.64;76.43
76590;BME280;65471;55.908;37.880;2023-04-30T05:38:02;100103.88;;;7.75;76.09
76590;BME280;65471;55.908;37.880;2023-04-30T05:40:29;100104.50;;;7.84;75.32
76590;BME280;65471;55.908;37.880;2023-04-30T05:42:56;100108.44;;;7.88;74.96
76590;BME280;65471;55.908;37.880;2023-04-30T05:45:23;100105.78;;;7.94;74.11
76590;BME280;65471;55.908;37.880;2023-04-30T05:47:50;100103.91;;;8.02;74.11
76590;BME280;65471;55.908;37.880;2023-04-30T05:50:17;100100.00;;;8.11;73.68
76590;BME280;65471;55.908;37.880;2023-04-30T05:52:44;100109.94;;;8.17;73.25
76590;BME280;65471;55.908;37.880;2023-04-30T05:55:11;100098.94;;;8.25;73.17
76590;BME280;65471;55.908;37.880;2023-04-30T05:57:38;100096.00;;;8.34;73.16
76590;BME280;65471;55.908;37.880;2023-04-30T06:00:05;100088.56;;;8.42;72.65
76590;BME280;65471;55.908;37.880;2023-04-30T06:02:32;100092.50;;;8.53;72.54
76590;BME280;65471;55.908;37.880;2023-04-30T06:04:59;100084.19;;;8.61;71.91
76590;BME280;65471;55.908;37.880;2023-04-30T06:07:29;100089.97;;;8.72;71.55
76590;BME280;65471;55.908;37.880;2023-04-30T06:09:56;100094.09;;;8.81;71.62
76590;BME280;65471;55.908;37.880;2023-04-30T06:12:23;100094.28;;;8.86;71.05
76590;BME280;65471;55.908;37.880;2023-04-30T06:14:51;100092.59;;;8.92;70.01
76590;BME280;65471;55.908;37.880;2023-04-30T06:17:18;100105.84;;;9.00;69.90
76590;BME280;65471;55.908;37.880;2023-04-30T06:19:45;100105.84;;;9.07;69.29
76590;BME280;65471;55.908;37.880;2023-04-30T06:22:12;100105.59;;;9.15;68.43
76590;BME280;65471;55.908;37.880;2023-04-30T06:24:39;100096.66;;;9.21;67.40
76590;BME280;65471;55.908;37.880;2023-04-30T06:27:06;100093.50;;;9.31;66.74
76590;BME280;65471;55.908;37.880;2023-04-30T06:29:32;100097.13;;;9.43;66.82
76590;BME280;65471;55.908;37.880;2023-04-30T06:31:59;100102.91;;;9.54;65.84
76590;BME280;65471;55.908;37.880;2023-04-30T06:34:26;100097.25;;;9.62;65.20
76590;BME280;65471;55.908;37.880;2023-04-30T06:36:53;100100.31;;;9.72;64.75
76590;BME280;65471;55.908;37.880;2023-04-30T06:39:20;100098.16;;;9.81;64.46
76590;BME280;65471;55.908;37.880;2023-04-30T06:41:47;100096.63;;;9.92;63.53
76590;BME280;65471;55.908;37.880;2023-04-30T06:44:14;100092.63;;;10.01;62.96
76590;BME280;65471;55.908;37.880;2023-04-30T06:46:42;100092.94;;;10.11;61.54
76590;BME280;65471;55.908;37.880;2023-04-30T06:49:09;100101.00;;;10.18;61.13
76590;BME280;65471;55.908;37.880;2023-04-30T06:51:36;100096.13;;;10.27;59.93
76590;BME280;65471;55.908;37.880;2023-04-30T06:54:03;100087.56;;;10.30;59.43
76590;BME280;65471;55.908;37.880;2023-04-30T06:56:30;100085.91;;;10.35;59.06
76590;BME280;65471;55.908;37.880;2023-04-30T06:58:57;100070.44;;;10.43;59.13
76590;BME280;65471;55.908;37.880;2023-04-30T07:01:23;100073.31;;;10.48;58.61
76590;BME280;65471;55.908;37.880;2023-04-30T07:03:51;100069.34;;;10.50;57.98
76590;BME280;65471;55.908;37.880;2023-04-30T07:06:21;100065.13;;;10.55;57.40
76590;BME280;65471;55.908;37.880;2023-04-30T07:08:48;100074.38;;;10.65;57.56
76590;BME280;65471;55.908;37.880;2023-04-30T07:11:15;100064.16;;;10.67;55.82
76590;BME280;65471;55.908;37.880;2023-04-30T07:13:42;100057.03;;;10.73;55.50
76590;BME280;65471;55.908;37.880;2023-04-30T07:16:09;100054.59;;;10.83;55.56
76590;BME280;65471;55.908;37.880;2023-04-30T07:18:36;100046.56;;;10.95;54.34
76590;BME280;65471;55.908;37.880;2023-04-30T07:21:03;100044.34;;;11.04;54.30
76590;BME280;65471;55.908;37.880;2023-04-30T07:23:30;100046.53;;;11.14;54.12
76590;BME280;65471;55.908;37.880;2023-04-30T07:25:57;100042.06;;;11.19;53.47
76590;BME280;65471;55.908;37.880;2023-04-30T07:28:24;100040.06;;;11.15;52.34
76590;BME280;65471;55.908;37.880;2023-04-30T07:30:51;100046.53;;;11.14;51.35
76590;BME280;65471;55.908;37.880;2023-04-30T07:33:18;100035.84;;;11.19;50.76
76590;BME280;65471;55.908;37.880;2023-04-30T07:35:45;100029.88;;;11.29;50.94
76590;BME280;65471;55.908;37.880;2023-04-30T07:38:12;100030.38;;;11.37;51.47
76590;BME280;65471;55.908;37.880;2023-04-30T07:40:39;100034.28;;;11.42;50.75
76590;BME280;65471;55.908;37.880;2023-04-30T07:43:06;100033.19;;;11.43;50.32
76590;BME280;65471;55.908;37.880;2023-04-30T07:45:34;100020.94;;;11.40;50.76
76590;BME280;65471;55.908;37.880;2023-04-30T07:48:01;100009.56;;;11.50;50.53
76590;BME280;65471;55.908;37.880;2023-04-30T07:50:28;100005.47;;;11.59;50.60
76590;BME280;65471;55.908;37.880;2023-04-30T07:53:00;100001.25;;;11.63;50.39
76590;BME280;65471;55.908;37.880;2023-04-30T07:55:27;99994.53;;;11.66;49.85
76590;BME280;65471;55.908;37.880;2023-04-30T07:57:54;99989.47;;;11.69;49.91
76590;BME280;65471;55.908;37.880;2023-04-30T08:00:21;99983.72;;;11.78;49.70
76590;BME280;65471;55.908;37.880;2023-04-30T08:02:48;99972.63;;;11.79;49.05
76590;BME280;65471;55.908;37.880;2023-04-30T08:05:16;99969.56;;;11.75;48.86
76590;BME280;65471;55.908;37.880;2023-04-30T08:07:43;99962.03;;;11.78;48.66
76590;BME280;65471;55.908;37.880;2023-04-30T08:10:11;99953.66;;;11.79;49.97
76590;BME280;65471;55.908;37.880;2023-04-30T08:12:38;99945.78;;;11.78;50.42
76590;BME280;65471;55.908;37.880;2023-04-30T08:15:05;99940.84;;;11.74;49.44
76590;BME280;65471;55.908;37.880;2023-04-30T08:17:33;99946.38;;;11.68;49.26
76590;BME280;65471;55.908;37.880;2023-04-30T08:20:03;99945.56;;;11.67;49.61
76590;BME280;65471;55.908;37.880;2023-04-30T08:22:30;99944.59;;;11.62;49.08
76590;BME280;65471;55.908;37.880;2023-04-30T08:24:57;99936.72;;;11.60;49.81
76590;BME280;65471;55.908;37.880;2023-04-30T08:27:24;99929.63;;;11.59;50.34
76590;BME280;65471;55.908;37.880;2023-04-30T08:29:50;99930.44;;;11.60;50.20
76590;BME280;65471;55.908;37.880;2023-04-30T08:32:18;99909.03;;;11.58;50.43
76590;BME280;65471;55.908;37.880;2023-04-30T08:34:45;99906.22;;;11.53;50.03
76590;BME280;65471;55.908;37.880;2023-04-30T08:37:12;99883.94;;;11.51;50.32
76590;BME280;65471;55.908;37.880;2023-04-30T08:39:39;99884.06;;;11.56;50.81
76590;BME280;65471;55.908;37.880;2023-04-30T08:42:07;99876.91;;;11.62;50.43
76590;BME280;65471;55.908;37.880;2023-04-30T08:44:35;99886.66;;;11.51;50.37
76590;BME280;65471;55.908;37.880;2023-04-30T08:47:06;99880.53;;;11.55;50.74
76590;BME280;65471;55.908;37.880;2023-04-30T08:49:34;99880.28;;;11.57;50.76
76590;BME280;65471;55.908;37.880;2023-04-30T08:52:03;99879.47;;;11.56;50.68
76590;BME280;65471;55.908;37.880;2023-04-30T08:54:30;99870.63;;;11.61;50.04
76590;BME280;65471;55.908;37.880;2023-04-30T08:57:01;99865.81;;;11.63;49.82
76590;BME280;65471;55.908;37.880;2023-04-30T08:59:28;99864.16;;;11.62;50.65
76590;BME280;65471;55.908;37.880;2023-04-30T09:01:55;99862.16;;;11.69;50.66
76590;BME280;65471;55.908;37.880;2023-04-30T09:04:22;99855.44;;;11.72;50.67
76590;BME280;65471;55.908;37.880;2023-04-30T09:06:52;99854.72;;;11.77;50.68
76590;BME280;65471;55.908;37.880;2023-04-30T09:09:19;99853.69;;;11.78;50.92
76590;BME280;65471;55.908;37.880;2023-04-30T09:11:46;99844.50;;;11.79;51.36
76590;BME280;65471;55.908;37.880;2023-04-30T09:14:23;99830.34;;;11.77;51.06
76590;BME280;65471;55.908;37.880;2023-04-30T09:16:50;99821.66;;;11.74;50.30
76590;BME280;65471;55.908;37.880;2023-04-30T09:19:25;99810.22;;;11.72;50.19
76590;BME280;65471;55.908;37.880;2023-04-30T09:21:53;99796.66;;;11.72;50.12
76590;BME280;65471;55.908;37.880;2023-04-30T09:24:21;99807.50;;;11.72;50.22
76590;BME280;65471;55.908;37.880;2023-04-30T09:26:48;99799.13;;;11.74;50.53
76590;BME280;65471;55.908;37.880;2023-04-30T09:29:16;99790.69;;;11.70;50.74
76590;BME280;65471;55.908;37.880;2023-04-30T09:31:45;99792.34;;;11.71;49.59
76590;BME280;65471;55.908;37.880;2023-04-30T09:34:13;99793.38;;;11.70;49.02
76590;BME280;65471;55.908;37.880;2023-04-30T09:36:53;99787.38;;;11.68;48.97
76590;BME280;65471;55.908;37.880;2023-04-30T09:39:21;99786.19;;;11.64;49.43
76590;BME280;65471;55.908;37.880;2023-04-30T09:41:51;99793.88;;;11.67;48.76
76590;BME280;65471;55.908;37.880;2023-04-30T09:44:28;99786.44;;;11.74;48.70
76590;BME280;65471;55.908;37.880;2023-04-30T09:46:56;99788.41;;;11.79;48.94
76590;BME280;65471;55.908;37.880;2023-04-30T09:49:25;99785.59;;;11.86;48.25
76590;BME280;65471;55.908;37.880;2023-04-30T09:52:02;99784.03;;;11.90;48.54
76590;BME280;65471;55.908;37.880;2023-04-30T09:54:31;99775.44;;;11.93;48.07
76590;BME280;65471;55.908;37.880;2023-04-30T09:57:00;99774.25;;;11.89;48.14
76590;BME280;65471;55.908;37.880;2023-04-30T09:59:32;99767.19;;;11.88;47.96
76590;BME280;65471;55.908;37.880;2023-04-30T10:02:03;99772.59;;;11.88;47.69
76590;BME280;65471;55.908;37.880;2023-04-30T10:04:38;99760.72;;;11.89;47.52
76590;BME280;65471;55.908;37.880;2023-04-30T10:07:11;99759.78;;;11.83;48.30
76590;BME280;65471;55.908;37.880;2023-04-30T10:10:06;99756.47;;;11.81;48.46
76590;BME280;65471;55.908;37.880;2023-04-30T10:12:37;99752.47;;;11.84;48.64
76590;BME280;65471;55.908;37.880;2023-04-30T10:15:15;99756.34;;;11.88;48.42
76590;BME280;65471;55.908;37.880;2023-04-30T10:17:47;99749.28;;;11.87;49.18
76590;BME280;65471;55.908;37.880;2023-04-30T10:20:16;99757.91;;;11.84;49.01
76590;BME280;65471;55.908;37.880;2023-04-30T10:22:46;99749.19;;;11.82;49.55
76590;BME280;65471;55.908;37.880;2023-04-30T10:25:13;99752.41;;;11.79;49.13
76590;BME280;65471;55.908;37.880;2023-04-30T10:27:41;99760.72;;;11.77;48.38
76590;BME280;65471;55.908;37.880;2023-04-30T10:30:09;99760.72;;;11.77;49.05
76590;BME280;65471;55.908;37.880;2023-04-30T10:35:27;99768.66;;;11.67;49.00
76590;BME280;65471;55.908;37.880;2023-04-30T10:38:12;99771.84;;;11.64;49.21
76590;BME280;65471;55.908;37.880;2023-04-30T10:40:44;99766.09;;;11.60;48.48
76590;BME280;65471;55.908;37.880;2023-04-30T10:43:12;99768.44;;;11.56;48.44
76590;BME280;65471;55.908;37.880;2023-04-30T10:45:42;99775.28;;;11.59;48.35
76590;BME280;65471;55.908;37.880;2023-04-30T10:48:09;99766.91;;;11.61;48.16
76590;BME280;65471;55.908;37.880;2023-04-30T10:50:41;99773.97;;;11.62;47.73
76590;BME280;65471;55.908;37.880;2023-04-30T10:53:13;99766.66;;;11.62;47.51
76590;BME280;65471;55.908;37.880;2023-04-30T10:55:52;99763.00;;;11.68;47.68
76590;BME280;65471;55.908;37.880;2023-04-30T11:01:20;99770.03;;;11.81;47.63
76590;BME280;65471;55.908;37.880;2023-04-30T11:04:06;99762.75;;;11.82;48.47
76590;BME280;65471;55.908;37.880;2023-04-30T11:06:54;99759.31;;;11.86;48.50
76590;BME280;65471;55.908;37.880;2023-04-30T11:09:34;99760.13;;;11.87;47.98
76590;BME280;65471;55.908;37.880;2023-04-30T11:12:30;99751.75;;;11.88;48.17
76590;BME280;65471;55.908;37.880;2023-04-30T11:15:06;99751.41;;;11.85;47.43
76590;BME280;65471;55.908;37.880;2023-04-30T11:17:33;99760.59;;;11.84;48.48
76590;BME280;65471;55.908;37.880;2023-04-30T11:20:00;99759.78;;;11.83;48.27
76590;BME280;65471;55.908;37.880;2023-04-30T11:22:30;99743.53;;;11.83;48.18
76590;BME280;65471;55.908;37.880;2023-04-30T11:25:07;99742.69;;;11.83;48.44
76590;BME280;65471;55.908;37.880;2023-04-30T11:27:42;99733.50;;;11.84;48.14
76590;BME280;65471;55.908;37.880;2023-04-30T11:30:11;99730.22;;;11.82;49.14
76590;BME280;65471;55.908;37.880;2023-04-30T11:32:43;99722.34;;;11.80;48.94
76590;BME280;65471;55.908;37.880;2023-04-30T11:35:16;99712.31;;;11.81;48.25
76590;BME280;65471;55.908;37.880;2023-04-30T11:37:44;99696.56;;;11.78;48.04
76590;BME280;65471;55.908;37.880;2023-04-30T11:40:12;99693.38;;;11.81;48.69
76590;BME280;65471;55.908;37.880;2023-04-30T11:42:41;99689.34;;;11.83;49.05
76590;BME280;65471;55.908;37.880;2023-04-30T11:45:14;99680.97;;;11.85;49.17
76590;BME280;65471;55.908;37.880;2023-04-30T11:47:48;99676.72;;;11.89;48.89
76590;BME280;65471;55.908;37.880;2023-04-30T11:50:18;99672.00;;;11.96;48.79
76590;BME280;65471;55.908;37.880;2023-04-30T11:52:49;99662.50;;;12.11;48.71
76590;BME280;65471;55.908;37.880;2023-04-30T11:55:17;99664.22;;;12.17;48.67
76590;BME280;65471;55.908;37.880;2023-04-30T11:57:48;99663.25;;;12.23;48.71
76590;BME280;65471;55.908;37.880;2023-04-30T12:00:20;99662.78;;;12.26;49.03
76590;BME280;65471;55.908;37.880;2023-04-30T12:02:48;99664.63;;;12.25;48.74
76590;BME280;65471;55.908;37.880;2023-04-30T12:05:20;99657.00;;;12.22;48.59
76590;BME280;65471;55.908;37.880;2023-04-30T12:10:18;99660.03;;;12.09;48.80
76590;BME280;65471;55.908;37.880;2023-04-30T12:12:48;99660.19;;;12.02;48.73
76590;BME280;65471;55.908;37.880;2023-04-30T12:15:20;99661.97;;;11.97;49.17
76590;BME280;65471;55.908;37.880;2023-04-30T12:17:55;99643.72;;;11.92;48.81
76590;BME280;65471;55.908;37.880;2023-04-30T12:20:25;99642.06;;;11.91;49.14
76590;BME280;65471;55.908;37.880;2023-04-30T12:22:54;99636.66;;;11.91;50.08
76590;BME280;65471;55.908;37.880;2023-04-30T12:25:21;99635.84;;;11.90;50.25
76590;BME280;65471;55.908;37.880;2023-04-30T12:27:50;99637.16;;;11.88;50.52
76590;BME280;65471;55.908;37.880;2023-04-30T12:30:19;99638.13;;;11.82;50.32
76590;BME280;65471;55.908;37.880;2023-04-30T12:32:51;99631.06;;;11.81;49.58
76590;BME280;65471;55.908;37.880;2023-04-30T12:35:20;99641.34;;;11.79;50.07
76590;BME280;65471;55.908;37.880;2023-04-30T12:37:49;99647.81;;;11.78;50.73
76590;BME280;65471;55.908;37.880;2023-04-30T12:40:19;99635.06;;;11.78;50.90
76590;BME280;65471;55.908;37.880;2023-04-30T12:42:46;99643.75;;;11.63;51.31
76590;BME280;65471;55.908;37.880;2023-04-30T12:45:43;99647.75;;;11.61;52.01
76590;BME280;65471;55.908;37.880;2023-04-30T12:48:11;99651.75;;;11.58;51.97
76590;BME280;65471;55.908;37.880;2023-04-30T12:50:38;99649.88;;;11.58;51.97
76590;BME280;65471;55.908;37.880;2023-04-30T12:53:05;99654.47;;;11.58;52.50
76590;BME280;65471;55.908;37.880;2023-04-30T12:55:33;99652.75;;;11.52;53.04
76590;BME280;65471;55.908;37.880;2023-04-30T13:03:15;99651.03;;;11.34;53.48
76590;BME280;65471;55.908;37.880;2023-04-30T13:05:50;99644.78;;;11.33;53.02
76590;BME280;65471;55.908;37.880;2023-04-30T13:08:18;99649.38;;;11.33;54.55
76590;BME280;65471;55.908;37.880;2023-04-30T13:10:47;99648.22;;;11.29;55.08
76590;BME280;65471;55.908;37.880;2023-04-30T13:13:15;99648.44;;;11.27;55.40
76590;BME280;65471;55.908;37.880;2023-04-30T13:15:42;99656.78;;;11.26;54.82
76590;BME280;65471;55.908;37.880;2023-04-30T13:18:10;99656.00;;;11.25;54.74
76590;BME280;65471;55.908;37.880;2023-04-30T13:20:37;99648.91;;;11.24;54.54
76590;BME280;65471;55.908;37.880;2023-04-30T13:23:05;99657.88;;;11.25;54.79
76590;BME280;65471;55.908;37.880;2023-04-30T13:25:32;99649.75;;;11.25;55.25
76590;BME280;65471;55.908;37.880;2023-04-30T13:28:01;99654.81;;;11.21;54.87
76590;BME280;65471;55.908;37.880;2023-04-30T13:30:28;99654.81;;;11.21;54.71
76590;BME280;65471;55.908;37.880;2023-04-30T13:32:55;99655.41;;;11.23;54.24
76590;BME280;65471;55.908;37.880;2023-04-30T13:35:22;99648.34;;;11.22;54.43